Aérodrome :
LOGIN :

S'inscrire | Disclaimer

   EN    FR    IT 

 










Légende :    VFR   VFR Marginal   IFR   IFR Intensif   IFR Très Intensif
Visi : 
Plafond : 
>= 8 km
>= 3000ft
5 à 8 km
1000 à 3000 ft
1500m à 5 km
500 à 1000 ft
800 à 1500m
200 à 500 ft
< 800m
< 200 ft
Symboles :   Orages  Brouillard  Fortes neiges  Fortes précipitations  Vent > 20 kt
SIGMETs :   Divers  Orages  Givrage  Turbulence  Onde Orograph.  Cendres Volcan.






- Altitude de l'aérodrome : 26 ft
- Code IATA : GLA


EGPF - Glasgow

DERNIER METAR :
  • 222050Z AUTO 20004KT 9999 NCD 08/05 Q1004

METARs EXPIRÉS :
  • 222020Z AUTO 19005KT 9999 OVC049 08/06 Q1004
  • 221950Z AUTO 20003KT 9999 NCD 07/06 Q1004
  • 221920Z AUTO 23004KT 9999 BKN046 08/06 Q1004
  • 221850Z AUTO 25004KT 9999 FEW034 OVC040 08/06 Q1004
  • 221820Z AUTO 21006KT 9999 OVC041 08/06 Q1004

TAF TAF EGPF
Valide du 22 à 18h jusqu'au 23 à 18h UTC


221655Z 2218/2318 26005KT 9999 FEW010 SCT030
BECMG 2221/2224 20010KT
TEMPO 2302/2309 6000 RA BKN012
PROB30
TEMPO 2303/2308 19015G25KT 4000 +RA RADZ BKN006
BECMG 2308/2311 26009KT
PROB30
TEMPO 2311/2318 6000 SHRA
ATIS : +44 141 887 7449



MET'MAP, la Météo Aéronautique d'un coup d'oeil ! - Copyright ORBIFLY Décembre 2007 - Disclaimer

ORBIFLY MET'MAP TEAM :

Programmation & Développement : Alexandra Zaïnal
Sur une idée originale de : Baudouin d'Aumeries
Assistance à la programmation : Marc-Olivier Méhu
Soutien technique & logistique : Manuel Goepfert

Contact : metmap@orbifly.com




SOURCES & CREDITS :

   NOAA